Urdampilleta, Argentina
Current Conditions -  °F | °C
As of 2:00 AM on Saturday 20 Dec 2014 (Local Time) from SAEZ Reporting Station
Few Clouds Few Clouds  
Wind Chill: 27°   Ceiling: Unl
Heat Index: 27°   Visibility: 6mi
Dew Point: 16°   Wind: 10mph
Humidity: 51%   Direction: 350°N
Pressure: 29.53"   Gusts: NA
Location:  36.43°S, 61.43°W
Report Text: SAEZ 200500Z 35009KT 310V030 9999 FEW039 27/16 Q1000 RMK LGHT OBS TO SW
Loading
Personal Weather Stations






























Interactive Weather Map New forecast layout! Learn more

10-Day Weather Forecast

Advertisements
Track Severe Weather on mobile